createdAt,value
2022-11-08T00:01:40.824Z,101520.66
2022-11-08T00:04:10.689Z,101518.06
2022-11-08T00:06:58.358Z,101515.44
2022-11-08T00:09:45.170Z,101512.84
2022-11-08T00:12:31.872Z,101515.53
2022-11-08T00:14:59.711Z,101515.56
2022-11-08T00:17:28.726Z,101514.69
2022-11-08T00:19:56.162Z,101512.94
2022-11-08T00:22:24.943Z,101510.19
2022-11-08T00:24:52.536Z,101511.81
2022-11-08T00:27:27.538Z,101515.41
2022-11-08T00:29:56.005Z,101515.41
2022-11-08T00:32:27.275Z,101512.84
2022-11-08T00:34:54.458Z,101518.13
2022-11-08T00:37:22.983Z,101517.22
2022-11-08T00:39:50.888Z,101524.34
2022-11-08T00:42:18.368Z,101522.63
2022-11-08T00:44:45.696Z,101516.47
2022-11-08T00:47:12.982Z,101516.44
2022-11-08T00:49:42.363Z,101510.25
2022-11-08T00:52:09.637Z,101511.06
2022-11-08T00:54:36.830Z,101503.25
2022-11-08T00:57:04.075Z,101506.81
2022-11-08T00:59:31.279Z,101504.16
2022-11-08T01:01:59.315Z,101506.81
2022-11-08T01:04:26.706Z,101505.94
2022-11-08T01:06:54.890Z,101508.59
2022-11-08T01:09:22.114Z,101509.34
2022-11-08T01:11:50.131Z,101515.50
2022-11-08T01:14:20.343Z,101511.03
2022-11-08T01:16:51.793Z,101516.31
2022-11-08T01:19:19.232Z,101513.75
2022-11-08T01:21:47.877Z,101510.19
2022-11-08T01:24:15.304Z,101516.28
2022-11-08T01:26:43.548Z,101516.06
2022-11-08T01:29:14.111Z,101516.72
2022-11-08T01:31:43.871Z,101509.50
2022-11-08T01:34:11.146Z,101524.31
2022-11-08T01:36:38.535Z,101519.88
2022-11-08T01:39:06.003Z,101528.53
2022-11-08T01:41:33.875Z,101523.16
2022-11-08T01:44:01.084Z,101523.06
2022-11-08T01:46:38.690Z,101532.69
2022-11-08T01:49:08.621Z,101527.25
2022-11-08T01:51:40.558Z,101527.13
2022-11-08T01:54:09.618Z,101522.50
2022-11-08T02:00:40.464Z,101527.69
2022-11-08T02:03:09.401Z,101532.03
2022-11-08T02:05:37.754Z,101531.16
2022-11-08T02:08:31.627Z,101530.28
2022-11-08T02:11:18.159Z,101522.34
2022-11-08T02:13:45.755Z,101532.13
2022-11-08T02:16:15.098Z,101535.63
2022-11-08T02:18:44.603Z,101532.94
2022-11-08T02:21:50.811Z,101531.25
2022-11-08T02:24:18.221Z,101535.63
2022-11-08T02:26:53.358Z,101530.34
2022-11-08T02:29:35.084Z,101525.84
2022-11-08T02:36:41.282Z,101524.00
2022-11-08T02:38:46.242Z,101531.81
2022-11-08T02:41:14.241Z,101525.59
2022-11-08T02:43:42.355Z,101520.28
2022-11-08T02:46:09.639Z,101529.94
2022-11-08T02:48:36.926Z,101523.69
2022-11-08T02:51:05.448Z,101531.59
2022-11-08T02:53:32.876Z,101527.06
2022-11-08T02:56:02.197Z,101527.91
2022-11-08T02:58:29.752Z,101532.25
2022-11-08T03:00:57.071Z,101537.50
2022-11-08T03:03:24.680Z,101535.66
2022-11-08T03:05:51.994Z,101534.81
2022-11-08T03:08:19.531Z,101532.09
2022-11-08T03:10:47.537Z,101530.22
2022-11-08T03:13:15.343Z,101535.44
2022-11-08T03:15:42.547Z,101533.66
2022-11-08T03:18:10.192Z,101539.81
2022-11-08T03:20:37.456Z,101540.63
2022-11-08T03:23:06.681Z,101541.47
2022-11-08T03:25:34.511Z,101537.13
2022-11-08T03:28:04.029Z,101523.81
2022-11-08T03:30:32.332Z,101530.84
2022-11-08T03:32:59.976Z,101523.75
2022-11-08T03:35:27.368Z,101522.94
2022-11-08T03:37:56.248Z,101529.88
2022-11-08T03:40:24.309Z,101521.97
2022-11-08T03:42:51.831Z,101520.13
2022-11-08T03:45:19.501Z,101523.63
2022-11-08T03:47:47.966Z,101522.75
2022-11-08T03:50:16.555Z,101528.03
2022-11-08T03:52:46.689Z,101523.53
2022-11-08T03:55:18.567Z,101528.88
2022-11-08T03:57:47.975Z,101531.47
2022-11-08T04:00:18.165Z,101539.44
2022-11-08T04:02:47.023Z,101536.91
2022-11-08T04:05:15.581Z,101535.00
2022-11-08T04:07:43.521Z,101533.09
2022-11-08T04:10:12.251Z,101528.59
2022-11-08T04:13:00.627Z,101525.13
2022-11-08T04:15:29.851Z,101525.91
2022-11-08T04:18:17.529Z,101526.75
2022-11-08T04:21:05.726Z,101526.00
2022-11-08T04:23:36.662Z,101523.41
2022-11-08T04:26:08.662Z,101524.22
2022-11-08T04:28:37.201Z,101521.47
2022-11-08T04:31:06.913Z,101521.38
2022-11-08T04:33:34.372Z,101514.31
2022-11-08T04:36:03.995Z,101525.78
2022-11-08T04:38:32.560Z,101523.91
2022-11-08T04:41:05.491Z,101530.13
2022-11-08T04:43:33.259Z,101524.91
2022-11-08T04:46:02.566Z,101535.41
2022-11-08T04:48:30.353Z,101533.56
2022-11-08T04:51:10.142Z,101522.06
2022-11-08T04:53:37.631Z,101529.13
2022-11-08T04:56:10.171Z,101527.38
2022-11-08T04:58:45.589Z,101522.09
2022-11-08T05:01:18.023Z,101514.16
2022-11-08T05:03:47.080Z,101517.66
2022-11-08T05:06:23.132Z,101518.56
2022-11-08T05:08:51.019Z,101519.41
2022-11-08T05:11:21.173Z,101515.84
2022-11-08T05:13:49.254Z,101520.28
2022-11-08T05:16:27.813Z,101524.59
2022-11-08T05:18:55.683Z,101520.03
2022-11-08T05:21:43.070Z,101526.06
2022-11-08T05:24:12.857Z,101511.78
2022-11-08T05:26:44.405Z,101525.03
2022-11-08T05:29:12.637Z,101516.97
2022-11-08T05:31:40.036Z,101517.88
2022-11-08T05:34:07.720Z,101520.63
2022-11-08T05:36:35.370Z,101516.22
2022-11-08T05:39:02.976Z,101516.16
2022-11-08T05:41:30.310Z,101521.41
2022-11-08T05:43:57.958Z,101528.41
2022-11-08T05:46:27.290Z,101530.16
2022-11-08T05:48:55.008Z,101531.78
2022-11-08T05:51:22.472Z,101529.06
2022-11-08T05:53:49.841Z,101536.09
2022-11-08T05:56:17.953Z,101536.13
2022-11-08T05:58:45.656Z,101543.25
2022-11-08T06:01:15.534Z,101537.22
2022-11-08T06:03:44.311Z,101551.41
2022-11-08T06:06:14.659Z,101543.44
2022-11-08T06:08:49.002Z,101550.50
2022-11-08T06:11:23.951Z,101539.78
2022-11-08T06:13:52.415Z,101535.38
2022-11-08T06:16:21.146Z,101544.25
2022-11-08T06:18:48.514Z,101536.25
2022-11-08T06:21:19.023Z,101541.47
2022-11-08T06:23:49.255Z,101543.22
2022-11-08T06:26:16.460Z,101542.34
2022-11-08T06:28:44.071Z,101545.81
2022-11-08T06:31:11.420Z,101548.31
2022-11-08T06:33:38.737Z,101554.31
2022-11-08T06:36:07.072Z,101561.22
2022-11-08T06:38:34.448Z,101561.09
2022-11-08T06:41:02.534Z,101558.38
2022-11-08T06:43:30.053Z,101561.88
2022-11-08T06:46:02.486Z,101553.06
2022-11-08T06:48:35.326Z,101545.97
2022-11-08T06:51:04.251Z,101548.59
2022-11-08T06:53:31.886Z,101556.47
2022-11-08T06:56:01.190Z,101551.88
2022-11-08T06:58:29.346Z,101549.16
2022-11-08T07:00:58.518Z,101545.50
2022-11-08T07:03:26.130Z,101549.75
2022-11-08T07:05:53.653Z,101541.72
2022-11-08T07:08:24.016Z,101551.47
2022-11-08T07:10:53.789Z,101543.50
2022-11-08T07:13:24.340Z,101546.03
2022-11-08T07:15:51.868Z,101553.19
2022-11-08T07:18:20.209Z,101553.16
2022-11-08T07:20:47.790Z,101545.16
2022-11-08T07:23:15.399Z,101549.47
2022-11-08T07:25:43.051Z,101548.66
2022-11-08T07:28:18.047Z,101548.75
2022-11-08T07:30:46.840Z,101539.97
2022-11-08T07:33:16.080Z,101548.88
2022-11-08T07:35:46.399Z,101541.84
2022-11-08T07:38:13.724Z,101552.34
2022-11-08T07:40:41.071Z,101543.50
2022-11-08T07:43:12.879Z,101554.00
2022-11-08T07:45:42.157Z,101557.56
2022-11-08T07:48:12.889Z,101561.78
2022-11-08T07:50:42.854Z,101556.25
2022-11-08T07:53:10.700Z,101557.09
2022-11-08T07:55:40.297Z,101558.81
2022-11-08T07:58:08.744Z,101563.22
2022-11-08T08:00:39.020Z,101561.38
2022-11-08T08:03:08.745Z,101553.50
2022-11-08T08:05:40.558Z,101559.69
2022-11-08T08:08:09.927Z,101565.09
2022-11-08T08:10:38.467Z,101565.16
2022-11-08T08:13:06.551Z,101568.81
2022-11-08T08:15:33.963Z,101567.94
2022-11-08T08:18:03.137Z,101574.94
2022-11-08T08:20:32.331Z,101574.78
2022-11-08T08:23:00.301Z,101572.06
2022-11-08T08:25:31.482Z,101571.00
2022-11-08T08:28:01.050Z,101581.75
2022-11-08T08:30:30.205Z,101575.50
2022-11-08T08:33:29.828Z,101565.59
2022-11-08T08:35:57.953Z,101568.19
2022-11-08T08:38:25.530Z,101560.94
2022-11-08T08:40:53.571Z,101562.00
2022-11-08T08:43:21.634Z,101565.59
2022-11-08T08:45:49.181Z,101558.50
2022-11-08T08:48:16.729Z,101542.53
2022-11-08T08:50:44.467Z,101550.34
2022-11-08T08:53:11.897Z,101549.22
2022-11-08T08:55:41.774Z,101551.66
2022-11-08T08:58:10.857Z,101540.13
2022-11-08T09:03:25.725Z,101540.78
2022-11-08T09:05:53.036Z,101530.25
2022-11-08T09:08:20.330Z,101532.66
2022-11-08T09:10:56.208Z,101527.97
2022-11-08T09:13:24.465Z,101526.97
2022-11-08T09:15:52.848Z,101519.69
2022-11-08T09:18:31.315Z,101517.81
2022-11-08T09:20:59.040Z,101519.56
2022-11-08T09:23:27.061Z,101517.66
2022-11-08T09:26:02.114Z,101524.78
2022-11-08T09:28:31.803Z,101524.13
2022-11-08T09:31:08.416Z,101517.88
2022-11-08T09:33:36.723Z,101509.78
2022-11-08T09:36:05.380Z,101507.84
2022-11-08T09:38:33.366Z,101497.81
2022-11-08T09:41:31.741Z,101503.16
2022-11-08T09:44:07.664Z,101508.50
2022-11-08T09:46:56.253Z,101506.69
2022-11-08T09:49:38.273Z,101493.56
2022-11-08T09:52:06.308Z,101498.09
2022-11-08T09:54:42.332Z,101505.22
2022-11-08T09:57:21.896Z,101505.28
2022-11-08T09:59:54.780Z,101497.44
2022-11-08T10:02:24.697Z,101495.88
2022-11-08T10:05:00.217Z,101503.00
2022-11-08T10:07:51.174Z,101495.13
2022-11-08T10:10:34.311Z,101500.19
2022-11-08T10:13:04.810Z,101482.41
2022-11-08T10:15:50.030Z,101485.06
2022-11-08T10:18:32.788Z,101483.47
2022-11-08T10:21:09.400Z,101486.97
2022-11-08T10:23:44.538Z,101495.81
2022-11-08T10:26:20.530Z,101485.81
2022-11-08T10:28:56.382Z,101490.50
2022-11-08T10:31:23.840Z,101487.00
2022-11-08T10:33:56.858Z,101477.97
2022-11-08T10:36:32.374Z,101467.31
2022-11-08T10:39:09.097Z,101469.59
2022-11-08T10:41:56.916Z,101471.38
2022-11-08T10:44:27.723Z,101465.25
2022-11-08T10:47:00.193Z,101464.34
2022-11-08T10:49:40.300Z,101465.00
2022-11-08T10:52:18.077Z,101467.72
2022-11-08T10:54:47.866Z,101460.72
2022-11-08T10:57:30.091Z,101460.50
2022-11-08T11:00:16.927Z,101468.25
2022-11-08T11:02:48.646Z,101476.91
2022-11-08T11:05:19.152Z,101480.59
2022-11-08T11:08:09.249Z,101483.50
2022-11-08T11:10:40.950Z,101470.38
2022-11-08T11:13:24.736Z,101471.91
2022-11-08T11:15:58.522Z,101461.16
2022-11-08T11:18:40.547Z,101468.72
2022-11-08T11:21:16.599Z,101464.06
2022-11-08T11:23:49.496Z,101467.38
2022-11-08T11:26:21.576Z,101469.81
2022-11-08T11:29:06.024Z,101471.34
2022-11-08T11:31:40.403Z,101471.69
2022-11-08T11:34:19.801Z,101465.78
2022-11-08T11:37:05.006Z,101466.78
2022-11-08T11:39:49.577Z,101461.09
2022-11-08T11:42:51.149Z,101459.69
2022-11-08T11:45:52.370Z,101459.81
2022-11-08T11:48:31.031Z,101460.50
2022-11-08T11:51:00.833Z,101462.81
2022-11-08T11:53:31.782Z,101463.50
2022-11-08T11:56:14.098Z,101460.28
2022-11-08T11:59:05.038Z,101459.06
2022-11-08T12:02:09.935Z,101456.06
2022-11-08T12:05:08.870Z,101454.50
2022-11-08T12:07:45.896Z,101464.31
2022-11-08T12:10:45.871Z,101446.63
2022-11-08T12:13:53.924Z,101456.25
2022-11-08T12:16:26.444Z,101457.09
2022-11-08T12:19:10.937Z,101463.97
2022-11-08T12:22:24.195Z,101460.63
2022-11-08T12:25:20.539Z,101469.63
2022-11-08T12:28:30.858Z,101462.59
2022-11-08T12:31:25.673Z,101454.00
2022-11-08T12:34:08.038Z,101454.94
2022-11-08T12:37:16.077Z,101450.41
2022-11-08T12:39:56.057Z,101457.38
2022-11-08T12:42:50.670Z,101454.78
2022-11-08T12:46:09.636Z,101455.63
2022-11-08T12:49:04.075Z,101457.47
2022-11-08T12:52:01.953Z,101454.81
2022-11-08T12:54:35.659Z,101451.06
2022-11-08T12:57:16.786Z,101453.94
2022-11-08T13:00:19.571Z,101462.22
2022-11-08T13:03:06.246Z,101456.06
2022-11-08T13:05:47.383Z,101460.53
2022-11-08T13:08:29.654Z,101466.63
2022-11-08T13:11:01.746Z,101462.22
2022-11-08T13:13:56.679Z,101463.13
2022-11-08T13:16:28.506Z,101463.13
2022-11-08T13:18:58.204Z,101465.78
2022-11-08T13:21:28.306Z,101472.88
2022-11-08T13:24:09.771Z,101461.41
2022-11-08T13:26:43.827Z,101456.84
2022-11-08T13:29:29.726Z,101460.47
2022-11-08T13:32:04.281Z,101459.00
2022-11-08T13:34:40.511Z,101459.38
2022-11-08T13:37:43.167Z,101448.13
2022-11-08T13:40:13.155Z,101457.28
2022-11-08T13:42:50.271Z,101459.09
2022-11-08T13:45:18.531Z,101457.44
2022-11-08T13:47:48.135Z,101452.28
2022-11-08T13:50:35.075Z,101451.59
2022-11-08T13:53:24.340Z,101456.19
2022-11-08T13:56:07.184Z,101449.22
2022-11-08T13:58:43.989Z,101443.31
2022-11-08T14:01:23.374Z,101444.47
2022-11-08T14:03:59.503Z,101442.97
2022-11-08T14:06:57.248Z,101442.34
2022-11-08T14:09:54.190Z,101441.63
2022-11-08T14:12:37.640Z,101461.22
2022-11-08T14:15:16.204Z,101463.75
2022-11-08T14:17:54.916Z,101456.44
2022-11-08T14:20:41.018Z,101464.22
2022-11-08T14:23:24.395Z,101471.28
2022-11-08T14:26:03.880Z,101470.34
2022-11-08T14:28:37.694Z,101464.91
2022-11-08T14:31:15.875Z,101473.63
2022-11-08T14:33:43.994Z,101474.38
2022-11-08T14:36:18.086Z,101475.16
2022-11-08T14:39:17.804Z,101474.09
2022-11-08T14:41:52.430Z,101474.91
2022-11-08T14:44:20.422Z,101479.22
2022-11-08T14:46:50.270Z,101480.03
2022-11-08T14:49:46.596Z,101491.59
2022-11-08T14:52:23.194Z,101482.03
2022-11-08T14:55:12.222Z,101476.78
2022-11-08T14:57:41.322Z,101490.09
2022-11-08T15:00:28.170Z,101491.97
2022-11-08T15:03:00.256Z,101467.16
2022-11-08T15:05:41.370Z,101477.03
2022-11-08T15:08:38.565Z,101482.47
2022-11-08T15:11:12.034Z,101469.31
2022-11-08T15:13:50.933Z,101477.41
2022-11-08T15:16:21.412Z,101481.06
2022-11-08T15:18:49.654Z,101485.50
2022-11-08T15:21:33.235Z,101487.34
2022-11-08T15:24:15.255Z,101497.94
2022-11-08T15:27:13.290Z,101486.41
2022-11-08T15:29:50.540Z,101490.78
2022-11-08T15:32:21.204Z,101481.94
2022-11-08T15:34:49.144Z,101471.38
2022-11-08T15:37:34.736Z,101487.34
2022-11-08T15:40:18.771Z,101481.22
2022-11-08T15:42:52.043Z,101478.63
2022-11-08T15:45:20.625Z,101475.09
2022-11-08T15:47:52.144Z,101475.19
2022-11-08T15:50:21.159Z,101475.25
2022-11-08T15:52:52.414Z,101475.25
2022-11-08T15:55:31.730Z,101473.50
2022-11-08T15:57:59.386Z,101483.22
2022-11-08T16:00:31.543Z,101515.91
2022-11-08T16:03:07.083Z,101521.03
2022-11-08T16:05:41.185Z,101521.81
2022-11-08T16:08:18.651Z,101522.75
2022-11-08T16:10:53.555Z,101504.00
2022-11-08T16:13:28.607Z,101505.66
2022-11-08T16:16:02.303Z,101499.53
2022-11-08T16:18:34.168Z,101507.56
2022-11-08T16:21:03.955Z,101508.47
2022-11-08T16:23:32.272Z,101518.97
2022-11-08T16:26:03.666Z,101514.53
2022-11-08T16:28:38.249Z,101515.25
2022-11-08T16:31:08.133Z,101517.94
2022-11-08T16:33:41.315Z,101524.06
2022-11-08T16:36:27.928Z,101517.72
2022-11-08T16:38:59.809Z,101520.28
2022-11-08T16:41:30.989Z,101528.22
2022-11-08T16:44:03.261Z,101530.94
2022-11-08T16:46:31.535Z,101525.56
2022-11-08T16:48:59.312Z,101520.34
2022-11-08T16:51:26.862Z,101515.19
2022-11-08T16:53:54.801Z,101519.81
2022-11-08T16:56:32.150Z,101517.22
2022-11-08T16:58:59.511Z,101519.22
2022-11-08T17:01:31.973Z,101509.59
2022-11-08T17:03:59.552Z,101512.28
2022-11-08T17:06:26.892Z,101504.41
2022-11-08T17:08:54.752Z,101494.78
2022-11-08T17:11:24.300Z,101496.66
2022-11-08T17:13:55.420Z,101495.03
2022-11-08T17:16:31.166Z,101509.34
2022-11-08T17:19:02.670Z,101507.66
2022-11-08T17:21:49.844Z,101510.25
2022-11-08T17:24:22.212Z,101509.34
2022-11-08T17:26:50.579Z,101506.69
2022-11-08T17:29:18.078Z,101497.91
2022-11-08T17:31:49.643Z,101490.06
2022-11-08T17:34:17.343Z,101491.13
2022-11-08T17:36:44.737Z,101489.69
2022-11-08T17:39:14.295Z,101488.25
2022-11-08T17:41:41.608Z,101484.06
2022-11-08T17:44:10.789Z,101475.56
2022-11-08T17:46:52.678Z,101491.69
2022-11-08T17:49:32.509Z,101481.19
2022-11-08T17:52:11.329Z,101470.66
2022-11-08T17:54:42.563Z,101472.50
2022-11-08T17:57:13.603Z,101468.88
2022-11-08T17:59:41.258Z,101472.38
2022-11-08T18:02:18.185Z,101484.59
2022-11-08T18:04:47.919Z,101481.88
2022-11-08T18:07:16.734Z,101494.16
2022-11-08T18:09:50.726Z,101482.56
2022-11-08T18:12:18.697Z,101485.13
2022-11-08T18:14:47.653Z,101494.81
2022-11-08T18:17:21.486Z,101498.34
2022-11-08T18:19:50.646Z,101490.31
2022-11-08T18:22:19.897Z,101499.03
2022-11-08T18:24:49.934Z,101498.03
2022-11-08T18:27:18.151Z,101503.25
2022-11-08T18:29:47.111Z,101503.38
2022-11-08T18:32:15.723Z,101503.44
2022-11-08T18:34:43.178Z,101508.13
2022-11-08T18:37:13.405Z,101507.44
2022-11-08T18:39:41.094Z,101517.31
2022-11-08T18:42:09.483Z,101520.13
2022-11-08T18:44:36.905Z,101526.72
2022-11-08T18:47:04.236Z,101524.19
2022-11-08T18:49:31.428Z,101527.72
2022-11-08T18:51:58.892Z,101518.03
2022-11-08T18:54:26.286Z,101533.94
2022-11-08T18:56:53.660Z,101541.84
2022-11-08T18:59:21.016Z,101547.09
2022-11-08T19:01:50.190Z,101540.84
2022-11-08T19:04:21.257Z,101552.28
2022-11-08T19:06:54.892Z,101544.31
2022-11-08T19:09:28.181Z,101547.09
2022-11-08T19:12:05.700Z,101535.63
2022-11-08T19:14:36.524Z,101540.09
2022-11-08T19:17:04.988Z,101549.88
2022-11-08T19:19:40.155Z,101548.13
2022-11-08T19:22:11.156Z,101544.63
2022-11-08T19:24:40.736Z,101536.78
2022-11-08T19:27:13.459Z,101548.38
2022-11-08T19:32:29.372Z,101536.22
2022-11-08T19:35:03.778Z,101537.31
2022-11-08T19:37:31.655Z,101539.16
2022-11-08T19:40:02.670Z,101542.69
2022-11-08T19:42:30.229Z,101544.47
2022-11-08T19:45:00.798Z,101544.47
2022-11-08T19:47:32.466Z,101541.81
2022-11-08T19:49:59.773Z,101545.31
2022-11-08T19:52:26.990Z,101540.03
2022-11-08T19:54:58.199Z,101543.66
2022-11-08T19:57:27.343Z,101546.34
2022-11-08T19:59:54.551Z,101549.03
2022-11-08T20:02:21.995Z,101536.63
2022-11-08T20:04:51.362Z,101543.69
2022-11-08T20:07:18.837Z,101548.00
2022-11-08T20:09:50.787Z,101553.22
2022-11-08T20:12:18.132Z,101544.28
2022-11-08T20:14:49.162Z,101541.63
2022-11-08T20:17:17.362Z,101543.38
2022-11-08T20:19:46.507Z,101542.41
2022-11-08T20:22:14.297Z,101529.25
2022-11-08T20:24:41.575Z,101531.94
2022-11-08T20:27:09.626Z,101529.28
2022-11-08T20:29:36.905Z,101536.41
2022-11-08T20:32:04.244Z,101539.16
2022-11-08T20:34:31.560Z,101537.59
2022-11-08T20:36:59.133Z,101533.25
2022-11-08T20:39:26.983Z,101532.47
2022-11-08T20:41:54.465Z,101539.66
2022-11-08T20:44:24.185Z,101533.56
2022-11-08T20:50:51.447Z,101550.28
2022-11-08T20:53:18.669Z,101553.75
2022-11-08T20:55:45.836Z,101559.81
2022-11-08T20:58:13.015Z,101561.47
2022-11-08T21:01:05.151Z,101565.00
2022-11-08T21:03:33.211Z,101571.09
2022-11-08T21:06:02.854Z,101571.00
2022-11-08T21:11:20.485Z,101579.72
2022-11-08T21:13:48.519Z,101577.00
2022-11-08T21:19:02.926Z,101565.47
2022-11-08T21:21:33.132Z,101569.03
2022-11-08T21:24:03.799Z,101574.28
2022-11-08T21:26:42.181Z,101570.72
2022-11-08T21:29:09.460Z,101578.69
2022-11-08T21:31:37.945Z,101567.25
2022-11-08T21:34:05.618Z,101580.41
2022-11-08T21:36:40.543Z,101578.56
2022-11-08T21:39:11.772Z,101586.50
2022-11-08T21:41:40.984Z,101591.72
2022-11-08T21:44:08.317Z,101595.16
2022-11-08T21:46:35.628Z,101595.06
2022-11-08T21:49:03.511Z,101588.34
2022-11-08T21:51:30.991Z,101580.19
2022-11-08T21:53:59.384Z,101577.44
2022-11-08T22:00:18.395Z,101577.97
2022-11-08T22:02:48.180Z,101571.78
2022-11-08T22:05:16.035Z,101576.25
2022-11-08T22:07:49.056Z,101564.78
2022-11-08T22:10:25.709Z,101570.88
2022-11-08T22:12:54.380Z,101574.38
2022-11-08T22:15:21.775Z,101570.75
2022-11-08T22:18:14.450Z,101572.41
2022-11-08T22:20:37.178Z,101586.47
2022-11-08T22:23:08.950Z,101582.91
2022-11-08T22:25:39.328Z,101590.78
2022-11-08T22:28:07.166Z,101582.72
2022-11-08T22:30:35.000Z,101581.78
2022-11-08T22:33:05.872Z,101582.56
2022-11-08T22:35:33.071Z,101583.38
2022-11-08T22:38:00.374Z,101578.06
2022-11-08T22:40:28.976Z,101581.56
2022-11-08T22:42:57.401Z,101587.81
2022-11-08T22:45:24.631Z,101584.16
2022-11-08T22:47:52.423Z,101586.69
2022-11-08T22:50:25.848Z,101581.34
2022-11-08T22:52:56.520Z,101575.16
2022-11-08T22:55:23.739Z,101577.06
2022-11-08T22:57:52.017Z,101573.66
2022-11-08T23:00:25.159Z,101569.56
2022-11-08T23:03:00.122Z,101579.38
2022-11-08T23:05:27.384Z,101571.41
2022-11-08T23:07:55.308Z,101572.25
2022-11-08T23:10:22.979Z,101568.69
2022-11-08T23:13:08.832Z,101572.19
2022-11-08T23:15:55.160Z,101574.78
2022-11-08T23:18:23.702Z,101576.53
2022-11-08T23:21:13.004Z,101582.63
2022-11-08T23:23:59.374Z,101579.06
2022-11-08T23:26:45.521Z,101580.91
2022-11-08T23:29:31.307Z,101584.47
2022-11-08T23:31:58.598Z,101584.47
2022-11-08T23:34:27.066Z,101586.34
2022-11-08T23:36:54.307Z,101580.25
2022-11-08T23:39:21.825Z,101572.25
2022-11-08T23:42:07.696Z,101578.50
2022-11-08T23:45:28.677Z,101575.97
2022-11-08T23:47:56.138Z,101569.81
2022-11-08T23:50:26.407Z,101568.06
2022-11-08T23:52:54.317Z,101571.00
2022-11-08T23:55:24.356Z,101576.56
2022-11-08T23:57:51.583Z,101566.91
